Time;durP1;ratioP1;P1;durP2;ratioP2;P2;SDS_P1;SDS_P2;PMS_P1;PMS_P2;Temp;Humidity;BMP_temperature;BMP_pressure;BME280_temperature;BME280_humidity;BME280_pressure;Samples;Min_cycle;Max_cycle;Signal;HPM_P1;HPM_P2
2022/05/30 00:02:20;;;;;;;5.30;3.42;;;;;;;;;;1856866;77;21193;-59
2022/05/30 00:04:49;;;;;;;6.20;4.25;;;;;;;;;;1856850;76;21010;-60
2022/05/30 00:07:18;;;;;;;5.03;3.62;;;;;;;;;;1856948;76;21100;-59
2022/05/30 00:09:48;;;;;;;5.05;3.85;;;;;;;;;;1856949;76;21046;-59
2022/05/30 00:12:16;;;;;;;5.87;3.75;;;;;;;;;;1856993;75;21516;-59
2022/05/30 00:14:45;;;;;;;4.17;3.80;;;;;;;;;;1856736;76;21030;-59
2022/05/30 00:17:14;;;;;;;4.92;3.75;;;;;;;;;;1856739;77;21046;-59
2022/05/30 00:19:42;;;;;;;4.40;3.62;;;;;;;;;;1856730;76;21025;-59
2022/05/30 00:22:14;;;;;;;4.33;3.70;;;;;;;;;;1856840;77;21042;-59
2022/05/30 00:24:43;;;;;;;5.20;4.00;;;;;;;;;;1856836;76;21492;-59
2022/05/30 00:27:12;;;;;;;4.60;4.15;;;;;;;;;;1856837;76;21030;-59
2022/05/30 00:29:41;;;;;;;5.85;3.85;;;;;;;;;;1856861;77;21007;-59
2022/05/30 00:32:10;;;;;;;4.03;3.62;;;;;;;;;;1856765;76;21038;-59
2022/05/30 00:34:39;;;;;;;4.62;3.65;;;;;;;;;;1856737;77;21104;-59
2022/05/30 00:37:09;;;;;;;5.72;3.85;;;;;;;;;;1856824;76;21041;-60
2022/05/30 00:39:37;;;;;;;9.90;4.10;;;;;;;;;;1856703;76;21026;-59
2022/05/30 00:42:13;;;;;;;6.87;3.67;;;;;;;;;;1856897;77;21026;-59
2022/05/30 00:44:42;;;;;;;4.60;3.65;;;;;;;;;;1856837;77;21115;-59
2022/05/30 00:47:11;;;;;;;6.17;4.05;;;;;;;;;;1856750;77;21042;-59
2022/05/30 00:49:41;;;;;;;6.97;3.67;;;;;;;;;;1856825;76;21038;-59
2022/05/30 00:52:11;;;;;;;6.60;4.78;;;;;;;;;;1856808;77;21433;-59
2022/05/30 00:54:47;;;;;;;4.55;4.12;;;;;;;;;;1856780;77;21034;-59
2022/05/30 00:57:22;;;;;;;6.47;3.65;;;;;;;;;;1856697;76;21131;-59
2022/05/30 00:59:55;;;;;;;4.70;4.25;;;;;;;;;;1856747;77;21042;-59
2022/05/30 01:02:25;;;;;;;6.28;4.90;;;;;;;;;;1856708;77;21037;-59
2022/05/30 01:07:45;;;;;;;5.12;4.62;;;;;;;;;;1856783;76;21050;-59
2022/05/30 01:10:12;;;;;;;4.80;3.95;;;;;;;;;;1856823;76;21128;-59
2022/05/30 01:12:52;;;;;;;4.90;4.28;;;;;;;;;;1858942;74;21022;-58
2022/05/30 01:15:23;;;;;;;6.53;3.95;;;;;;;;;;1882159;76;21123;-59
2022/05/30 01:17:53;;;;;;;5.50;4.35;;;;;;;;;;1882323;76;21010;-59
2022/05/30 01:20:22;;;;;;;6.33;4.03;;;;;;;;;;1882251;76;21089;-59
2022/05/30 01:22:55;;;;;;;5.78;4.12;;;;;;;;;;1882077;76;21030;-59
2022/05/30 01:25:36;;;;;;;8.35;4.60;;;;;;;;;;1882236;76;21054;-60
2022/05/30 01:28:07;;;;;;;4.03;3.62;;;;;;;;;;1881469;75;21053;-60
2022/05/30 01:30:39;;;;;;;10.00;4.37;;;;;;;;;;1882038;75;21030;-59
2022/05/30 01:33:08;;;;;;;4.67;4.05;;;;;;;;;;1882279;76;21034;-60
2022/05/30 01:35:36;;;;;;;6.47;3.85;;;;;;;;;;1882155;76;21010;-60
2022/05/30 01:38:07;;;;;;;4.90;3.95;;;;;;;;;;1882180;75;21238;-60
2022/05/30 01:40:36;;;;;;;5.10;3.65;;;;;;;;;;1882147;76;21100;-59
2022/05/30 01:43:06;;;;;;;5.67;4.20;;;;;;;;;;1882287;76;21108;-59
2022/05/30 01:45:36;;;;;;;5.70;4.33;;;;;;;;;;1882206;76;21022;-60
2022/05/30 01:48:05;;;;;;;5.62;4.20;;;;;;;;;;1882165;76;21085;-59
2022/05/30 01:50:34;;;;;;;5.22;4.25;;;;;;;;;;1882142;76;21046;-60
2022/05/30 01:53:04;;;;;;;5.08;3.33;;;;;;;;;;1883224;75;21045;-59
2022/05/30 01:55:35;;;;;;;4.90;3.67;;;;;;;;;;1885104;75;21182;-59
2022/05/30 01:58:05;;;;;;;4.03;3.62;;;;;;;;;;1882801;75;21126;-59
2022/05/30 02:00:38;;;;;;;6.17;3.62;;;;;;;;;;1882248;76;21082;-60
2022/05/30 02:03:08;;;;;;;6.03;3.83;;;;;;;;;;1882154;76;21160;-59
2022/05/30 02:05:37;;;;;;;7.28;3.77;;;;;;;;;;1882091;76;21124;-60
2022/05/30 02:08:06;;;;;;;5.65;3.72;;;;;;;;;;1882263;76;21159;-59
2022/05/30 02:10:35;;;;;;;6.33;3.33;;;;;;;;;;1882387;76;21147;-59
2022/05/30 02:13:05;;;;;;;7.70;3.90;;;;;;;;;;1881224;75;21038;-59
2022/05/30 02:18:35;;;;;;;5.33;4.00;;;;;;;;;;1856961;76;21104;-59
2022/05/30 02:21:04;;;;;;;4.33;3.80;;;;;;;;;;1856785;76;21037;-60
2022/05/30 02:23:32;;;;;;;6.17;4.30;;;;;;;;;;1856819;77;21033;-59
2022/05/30 02:26:03;;;;;;;5.47;3.60;;;;;;;;;;1856892;76;21134;-59
2022/05/30 02:28:31;;;;;;;5.75;3.80;;;;;;;;;;1856898;76;21034;-59
2022/05/30 02:31:00;;;;;;;5.95;3.85;;;;;;;;;;1856821;76;21029;-61
2022/05/30 02:39:04;;;;;;;7.37;4.50;;;;;;;;;;1856817;76;21022;-60
2022/05/30 02:41:51;;;;;;;5.95;4.00;;;;;;;;;;1856779;77;21104;-60
2022/05/30 02:44:22;;;;;;;7.00;4.37;;;;;;;;;;1890033;76;21010;-60
2022/05/30 02:46:52;;;;;;;5.22;3.83;;;;;;;;;;1856774;76;21053;-60
2022/05/30 02:49:21;;;;;;;7.85;4.08;;;;;;;;;;1856856;76;21104;-59
2022/05/30 02:51:51;;;;;;;8.70;4.35;;;;;;;;;;1856867;77;21013;-60
2022/05/30 02:54:21;;;;;;;6.45;4.33;;;;;;;;;;1856898;77;21107;-60
2022/05/30 02:57:08;;;;;;;5.00;4.45;;;;;;;;;;1856897;76;21496;-60
2022/05/30 02:59:38;;;;;;;6.50;3.70;;;;;;;;;;1856871;76;21100;-60
2022/05/30 03:02:07;;;;;;;6.45;3.98;;;;;;;;;;1856829;76;21014;-59
2022/05/30 03:04:37;;;;;;;6.17;4.00;;;;;;;;;;1856877;76;21030;-60
2022/05/30 03:07:07;;;;;;;5.05;4.33;;;;;;;;;;1856816;76;21045;-60
2022/05/30 03:09:36;;;;;;;4.95;4.08;;;;;;;;;;1856829;76;21053;-60
2022/05/30 03:15:02;;;;;;;7.20;4.50;;;;;;;;;;1890445;76;21037;-60
2022/05/30 03:17:31;;;;;;;6.72;3.98;;;;;;;;;;1890593;75;21105;-60
2022/05/30 03:19:59;;;;;;;8.68;4.58;;;;;;;;;;1890419;76;21112;-60
2022/05/30 03:22:28;;;;;;;10.88;4.90;;;;;;;;;;1890409;76;21038;-60
2022/05/30 03:25:15;;;;;;;11.25;4.87;;;;;;;;;;1890485;76;21421;-60
2022/05/30 03:27:44;;;;;;;6.75;4.40;;;;;;;;;;1890443;76;21095;-60
2022/05/30 03:30:13;;;;;;;14.98;7.00;;;;;;;;;;1890431;75;21018;-59
2022/05/30 03:32:43;;;;;;;13.62;7.00;;;;;;;;;;1890323;74;21002;-61
2022/05/30 03:35:12;;;;;;;22.82;11.35;;;;;;;;;;1890356;76;21001;-60
2022/05/30 03:37:43;;;;;;;17.92;9.78;;;;;;;;;;1890300;76;21044;-60
2022/05/30 03:40:28;;;;;;;15.40;8.25;;;;;;;;;;1886994;76;21044;-61
2022/05/30 03:43:07;;;;;;;28.17;13.32;;;;;;;;;;1845941;75;21040;-61
2022/05/30 03:45:40;;;;;;;22.75;12.28;;;;;;;;;;1890313;75;21147;-61
2022/05/30 03:48:10;;;;;;;24.00;11.73;;;;;;;;;;1890341;76;21029;-61
2022/05/30 03:50:40;;;;;;;19.92;9.20;;;;;;;;;;1890328;76;21453;-61
2022/05/30 03:53:09;;;;;;;19.73;7.42;;;;;;;;;;1889697;75;21030;-61
2022/05/30 03:55:40;;;;;;;19.67;9.48;;;;;;;;;;1890114;75;21073;-61
2022/05/30 03:58:10;;;;;;;17.80;8.80;;;;;;;;;;1889565;75;21119;-61
2022/05/30 04:00:40;;;;;;;16.50;7.53;;;;;;;;;;1890317;75;21464;-61
2022/05/30 04:03:09;;;;;;;18.02;9.30;;;;;;;;;;1890331;76;21006;-61
2022/05/30 04:05:37;;;;;;;12.70;6.35;;;;;;;;;;1890225;75;21088;-61
2022/05/30 04:08:06;;;;;;;10.40;5.45;;;;;;;;;;1890390;75;21456;-61
2022/05/30 04:10:53;;;;;;;12.18;6.35;;;;;;;;;;1890355;75;21021;-60
2022/05/30 04:13:24;;;;;;;12.50;5.03;;;;;;;;;;1890228;75;21139;-60
2022/05/30 04:16:10;;;;;;;11.28;5.85;;;;;;;;;;1888386;75;21049;-60
2022/05/30 04:18:39;;;;;;;10.55;5.78;;;;;;;;;;1890360;76;21163;-60
2022/05/30 04:21:09;;;;;;;10.48;6.45;;;;;;;;;;1890447;75;21115;-60
2022/05/30 04:23:38;;;;;;;13.20;7.47;;;;;;;;;;1890360;75;21085;-60
2022/05/30 04:26:09;;;;;;;11.05;6.80;;;;;;;;;;1889717;76;21045;-60
2022/05/30 04:28:39;;;;;;;18.55;9.00;;;;;;;;;;1890317;75;21045;-60
2022/05/30 04:31:26;;;;;;;18.73;9.48;;;;;;;;;;1890251;76;21162;-60
2022/05/30 04:33:54;;;;;;;20.88;9.98;;;;;;;;;;1890316;76;21006;-60
2022/05/30 04:36:23;;;;;;;21.80;9.90;;;;;;;;;;1890321;76;21026;-60
2022/05/30 04:38:54;;;;;;;17.15;9.63;;;;;;;;;;1890233;76;21044;-60
2022/05/30 04:41:39;;;;;;;21.42;9.18;;;;;;;;;;1890343;76;21029;-60
2022/05/30 04:44:28;;;;;;;17.05;9.20;;;;;;;;;;1890163;76;21099;-60
2022/05/30 04:47:11;;;;;;;16.93;10.30;;;;;;;;;;1887419;75;21064;-59
2022/05/30 04:49:39;;;;;;;15.38;9.55;;;;;;;;;;1890238;75;21111;-60
2022/05/30 04:52:09;;;;;;;18.70;10.10;;;;;;;;;;1890470;75;21029;-60
2022/05/30 04:54:38;;;;;;;14.58;9.33;;;;;;;;;;1890311;75;21030;-60
2022/05/30 04:57:08;;;;;;;16.05;8.65;;;;;;;;;;1886932;75;21037;-60
2022/05/30 04:59:42;;;;;;;15.08;8.05;;;;;;;;;;1889493;75;21045;-60
2022/05/30 05:02:13;;;;;;;27.37;9.43;;;;;;;;;;1890202;76;21037;-61
2022/05/30 05:04:41;;;;;;;21.40;8.18;;;;;;;;;;1890156;75;21030;-60
2022/05/30 05:07:10;;;;;;;19.57;9.35;;;;;;;;;;1890387;76;21108;-61
2022/05/30 05:09:48;;;;;;;19.85;9.30;;;;;;;;;;1889390;75;21037;-60
2022/05/30 05:12:34;;;;;;;21.90;9.78;;;;;;;;;;1890247;76;21086;-60
2022/05/30 05:15:05;;;;;;;18.52;8.70;;;;;;;;;;1886390;74;21065;-60
2022/05/30 05:17:36;;;;;;;15.20;8.43;;;;;;;;;;1890158;75;21123;-61
2022/05/30 05:20:05;;;;;;;15.78;7.03;;;;;;;;;;1890306;76;21452;-61
2022/05/30 05:22:35;;;;;;;15.78;6.90;;;;;;;;;;1890173;75;21029;-60
2022/05/30 05:25:04;;;;;;;16.02;7.53;;;;;;;;;;1890092;76;21171;-60
2022/05/30 05:27:44;;;;;;;19.92;10.72;;;;;;;;;;1890220;76;21037;-60
2022/05/30 05:30:12;;;;;;;11.68;6.08;;;;;;;;;;1890365;76;21023;-60
2022/05/30 05:32:43;;;;;;;19.07;8.03;;;;;;;;;;1889874;76;21480;-60
2022/05/30 05:35:12;;;;;;;18.60;7.60;;;;;;;;;;1890497;76;21117;-60
2022/05/30 05:37:41;;;;;;;14.60;7.08;;;;;;;;;;1890027;76;21154;-60
2022/05/30 05:40:28;;;;;;;17.05;6.72;;;;;;;;;;1890059;76;21480;-60
2022/05/30 05:42:57;;;;;;;18.02;6.72;;;;;;;;;;1890212;76;21082;-60
2022/05/30 05:45:26;;;;;;;12.60;6.20;;;;;;;;;;1890223;76;21142;-61
2022/05/30 05:47:56;;;;;;;14.87;6.85;;;;;;;;;;1890349;76;21050;-61
2022/05/30 05:50:24;;;;;;;18.07;7.75;;;;;;;;;;1890357;75;21027;-60
2022/05/30 05:52:54;;;;;;;14.25;6.87;;;;;;;;;;1890315;76;21017;-60
2022/05/30 05:55:24;;;;;;;16.62;7.83;;;;;;;;;;1890075;75;21041;-60
2022/05/30 05:57:53;;;;;;;16.37;9.25;;;;;;;;;;1890148;75;21034;-60
2022/05/30 06:00:23;;;;;;;15.35;6.95;;;;;;;;;;1890042;76;21042;-60
2022/05/30 06:02:52;;;;;;;20.82;7.62;;;;;;;;;;1890373;76;21026;-60
2022/05/30 06:05:22;;;;;;;23.98;8.65;;;;;;;;;;1889613;75;21115;-60
2022/05/30 06:08:00;;;;;;;20.48;7.95;;;;;;;;;;1845767;75;21085;-60
2022/05/30 06:10:30;;;;;;;18.42;7.80;;;;;;;;;;1884154;76;21084;-60
2022/05/30 06:13:00;;;;;;;16.27;8.03;;;;;;;;;;1890203;76;21508;-60
2022/05/30 06:15:29;;;;;;;15.70;6.90;;;;;;;;;;1908784;74;21058;-60
2022/05/30 06:18:05;;;;;;;15.88;7.37;;;;;;;;;;1915900;75;21053;-60
2022/05/30 06:20:34;;;;;;;20.82;7.67;;;;;;;;;;1916778;75;21042;-60
2022/05/30 06:23:03;;;;;;;18.25;8.23;;;;;;;;;;1916877;75;21257;-60
2022/05/30 06:25:49;;;;;;;14.70;7.10;;;;;;;;;;1823901;78;21065;-60
2022/05/30 06:28:19;;;;;;;15.28;7.05;;;;;;;;;;1882348;75;21037;-60
2022/05/30 06:30:49;;;;;;;14.18;7.30;;;;;;;;;;1904579;75;21119;-60
2022/05/30 06:33:18;;;;;;;14.93;7.03;;;;;;;;;;1916680;75;21087;-60
2022/05/30 06:35:51;;;;;;;10.35;6.50;;;;;;;;;;1915545;75;21107;-60
2022/05/30 06:38:20;;;;;;;12.13;5.30;;;;;;;;;;1916777;75;21186;-61
2022/05/30 06:40:50;;;;;;;8.50;5.75;;;;;;;;;;1915783;75;21045;-60
2022/05/30 06:43:20;;;;;;;9.25;5.65;;;;;;;;;;1916517;75;21030;-60
2022/05/30 06:49:04;;;;;;;8.38;5.17;;;;;;;;;;1940357;73;21027;-61
2022/05/30 06:51:35;;;;;;;17.90;5.80;;;;;;;;;;1900136;75;21089;-61
2022/05/30 06:54:06;;;;;;;7.83;4.62;;;;;;;;;;1939915;73;21073;-61
2022/05/30 06:56:37;;;;;;;6.83;4.00;;;;;;;;;;1933691;74;21128;-60
2022/05/30 06:59:06;;;;;;;20.15;6.90;;;;;;;;;;1933835;74;21017;-60
2022/05/30 07:01:35;;;;;;;12.73;5.20;;;;;;;;;;1933436;74;21095;-60
2022/05/30 07:04:17;;;;;;;19.90;6.65;;;;;;;;;;1849513;75;21030;-60
2022/05/30 07:07:00;;;;;;;10.25;4.50;;;;;;;;;;1881615;73;21040;-60
2022/05/30 07:09:48;;;;;;;12.82;5.62;;;;;;;;;;1933534;74;21046;-60
2022/05/30 07:12:24;;;;;;;9.23;5.12;;;;;;;;;;1930134;73;21066;-60
2022/05/30 07:14:53;;;;;;;10.72;4.53;;;;;;;;;;1933470;73;21100;-60
2022/05/30 07:17:25;;;;;;;4.47;4.03;;;;;;;;;;1933431;74;21095;-60
2022/05/30 07:19:52;;;;;;;9.15;4.60;;;;;;;;;;1933567;73;21083;-60
2022/05/30 07:22:23;;;;;;;7.20;3.80;;;;;;;;;;1932009;73;21064;-60
2022/05/30 07:25:10;;;;;;;9.50;4.87;;;;;;;;;;1933352;73;21104;-60
2022/05/30 07:27:56;;;;;;;30.62;5.45;;;;;;;;;;1927652;73;21069;-60
2022/05/30 07:30:42;;;;;;;7.62;3.92;;;;;;;;;;1933402;73;21025;-60
2022/05/30 07:33:29;;;;;;;14.23;9.18;;;;;;;;;;1933402;73;21025;-60
2022/05/30 07:36:17;;;;;;;6.58;4.50;;;;;;;;;;1933515;73;21472;-60
2022/05/30 07:38:53;;;;;;;6.50;4.55;;;;;;;;;;1901600;74;21111;-60
2022/05/30 07:41:33;;;;;;;5.70;4.03;;;;;;;;;;1895929;74;21070;-60
2022/05/30 07:44:07;;;;;;;8.93;4.47;;;;;;;;;;1930618;73;21535;-60
2022/05/30 07:46:52;;;;;;;7.35;3.33;;;;;;;;;;1931272;73;21021;-60
2022/05/30 07:49:26;;;;;;;6.73;3.80;;;;;;;;;;1926606;73;21033;-60
2022/05/30 07:51:56;;;;;;;4.30;3.67;;;;;;;;;;1936913;73;21131;-60
2022/05/30 07:54:34;;;;;;;7.58;4.12;;;;;;;;;;1936930;73;21077;-61
2022/05/30 07:57:05;;;;;;;6.62;3.67;;;;;;;;;;1934580;73;21074;-60
2022/05/30 07:59:39;;;;;;;5.50;4.15;;;;;;;;;;1937713;73;21025;-60
2022/05/30 08:02:07;;;;;;;6.75;4.22;;;;;;;;;;1937200;73;21021;-61
2022/05/30 08:04:37;;;;;;;15.85;6.45;;;;;;;;;;1937636;73;21083;-60
2022/05/30 08:07:23;;;;;;;7.65;4.42;;;;;;;;;;1937586;73;21087;-61
2022/05/30 08:09:54;;;;;;;6.50;3.50;;;;;;;;;;1869628;73;21110;-60
2022/05/30 08:12:24;;;;;;;7.65;3.98;;;;;;;;;;1937045;73;21066;-61
2022/05/30 08:15:01;;;;;;;11.38;4.53;;;;;;;;;;1937700;73;21093;-61
2022/05/30 08:17:40;;;;;;;9.73;3.65;;;;;;;;;;1931448;73;21123;-60
2022/05/30 08:20:10;;;;;;;8.48;4.20;;;;;;;;;;1937625;73;21095;-60
2022/05/30 08:22:39;;;;;;;7.22;3.92;;;;;;;;;;1937702;74;21017;-60
2022/05/30 08:25:10;;;;;;;11.73;4.45;;;;;;;;;;1937771;73;21021;-60
2022/05/30 08:27:39;;;;;;;15.28;4.05;;;;;;;;;;1937563;73;21096;-61
2022/05/30 08:30:09;;;;;;;7.62;4.50;;;;;;;;;;1937539;73;21045;-61
2022/05/30 08:32:40;;;;;;;9.58;4.00;;;;;;;;;;1937466;73;21139;-60
2022/05/30 08:35:27;;;;;;;11.78;4.62;;;;;;;;;;1937595;73;21037;-60
2022/05/30 08:37:57;;;;;;;12.05;4.42;;;;;;;;;;1937511;73;21114;-60
2022/05/30 08:43:19;;;;;;;12.40;5.55;;;;;;;;;;1937186;73;21554;-58
2022/05/30 08:45:51;;;;;;;12.33;5.10;;;;;;;;;;1932499;73;21037;-59
2022/05/30 08:48:28;;;;;;;10.80;3.85;;;;;;;;;;1933589;73;21128;-60
2022/05/30 08:51:17;;;;;;;8.25;4.03;;;;;;;;;;1931592;73;21025;-60
2022/05/30 08:54:06;;;;;;;9.90;3.50;;;;;;;;;;1932741;74;21044;-59
2022/05/30 08:56:37;;;;;;;9.45;3.75;;;;;;;;;;1897825;75;21190;-61
2022/05/30 08:59:33;;;;;;;9.30;3.90;;;;;;;;;;1928395;73;21570;-61
2022/05/30 09:02:16;;;;;;;18.77;4.60;;;;;;;;;;1961666;73;20994;-59
2022/05/30 09:04:54;;;;;;;9.90;4.78;;;;;;;;;;1957839;73;21180;-66
2022/05/30 09:07:26;;;;;;;4.80;3.52;;;;;;;;;;1961465;73;21053;-60
2022/05/30 09:09:56;;;;;;;9.23;5.12;;;;;;;;;;1964379;73;20978;-60
2022/05/30 09:12:33;;;;;;;8.68;5.78;;;;;;;;;;1961256;73;21002;-60
2022/05/30 09:15:08;;;;;;;3.25;2.95;;;;;;;;;;1962297;72;21030;-61
2022/05/30 09:17:38;;;;;;;3.65;3.17;;;;;;;;;;1964960;73;21558;-61
2022/05/30 09:20:08;;;;;;;3.85;2.90;;;;;;;;;;1965037;73;21064;-60
2022/05/30 09:22:38;;;;;;;30.50;6.08;;;;;;;;;;1964870;73;21014;-58
2022/05/30 09:28:01;;;;;;;7.20;2.87;;;;;;;;;;1964529;71;21159;-57
2022/05/30 09:30:48;;;;;;;6.83;3.00;;;;;;;;;;1963005;73;21114;-58
2022/05/30 09:33:35;;;;;;;6.67;3.05;;;;;;;;;;1954553;73;21056;-58
2022/05/30 09:36:23;;;;;;;4.53;2.80;;;;;;;;;;1964767;73;21048;-58
2022/05/30 09:39:11;;;;;;;4.15;2.92;;;;;;;;;;1964836;73;21006;-58
2022/05/30 09:41:42;;;;;;;6.78;3.27;;;;;;;;;;1964370;73;21095;-59
2022/05/30 09:44:13;;;;;;;4.85;2.83;;;;;;;;;;1962561;73;21020;-57
2022/05/30 09:46:56;;;;;;;5.95;3.83;;;;;;;;;;1961637;73;21151;-54
2022/05/30 09:49:43;;;;;;;5.85;3.20;;;;;;;;;;1951340;73;21470;-55
2022/05/30 09:52:29;;;;;;;4.65;2.90;;;;;;;;;;1956164;73;21129;-55
2022/05/30 09:54:59;;;;;;;5.20;3.33;;;;;;;;;;1956911;73;21085;-55
2022/05/30 09:57:31;;;;;;;4.20;3.50;;;;;;;;;;1956891;73;21016;-55
2022/05/30 10:00:09;;;;;;;4.50;2.83;;;;;;;;;;1956228;73;21120;-55
2022/05/30 10:02:44;;;;;;;4.50;2.72;;;;;;;;;;1956166;73;21016;-55
2022/05/30 10:05:28;;;;;;;3.83;3.20;;;;;;;;;;1956673;73;21059;-55
2022/05/30 10:07:58;;;;;;;7.92;3.00;;;;;;;;;;1956992;73;21447;-55
2022/05/30 10:10:32;;;;;;;4.50;2.85;;;;;;;;;;1944178;72;21051;-55
2022/05/30 10:13:03;;;;;;;3.40;2.70;;;;;;;;;;1957063;73;21004;-55
2022/05/30 10:15:57;;;;;;;12.78;3.58;;;;;;;;;;1956857;73;21077;-55
2022/05/30 10:18:30;;;;;;;5.78;3.25;;;;;;;;;;1956987;73;21461;-55
2022/05/30 10:21:17;;;;;;;6.58;3.70;;;;;;;;;;1956875;73;21020;-56
2022/05/30 10:30:05;;;;;;;4.12;2.85;;;;;;;;;;1957142;73;21459;-56
2022/05/30 10:32:42;;;;;;;5.13;3.23;;;;;;;;;;1917121;73;21298;-56
2022/05/30 10:35:16;;;;;;;6.17;3.33;;;;;;;;;;1956772;73;21467;-56
2022/05/30 10:37:45;;;;;;;3.92;2.75;;;;;;;;;;1957008;73;21016;-56
2022/05/30 10:40:33;;;;;;;5.03;3.22;;;;;;;;;;1932997;73;20987;-56
2022/05/30 10:43:13;;;;;;;4.95;3.00;;;;;;;;;;1957165;73;21097;-56
2022/05/30 10:45:52;;;;;;;4.28;3.30;;;;;;;;;;1957044;73;21055;-56
2022/05/30 10:48:22;;;;;;;7.70;4.33;;;;;;;;;;1957052;73;21039;-56
2022/05/30 10:50:55;;;;;;;6.42;3.72;;;;;;;;;;1956344;73;21490;-56
2022/05/30 10:53:25;;;;;;;4.10;2.95;;;;;;;;;;1949978;73;21020;-56
2022/05/30 10:56:19;;;;;;;8.73;3.25;;;;;;;;;;1957068;73;21057;-56
2022/05/30 10:58:49;;;;;;;3.70;3.40;;;;;;;;;;1956892;72;21082;-56
2022/05/30 11:01:38;;;;;;;3.75;2.75;;;;;;;;;;1956314;73;21016;-56
2022/05/30 11:04:08;;;;;;;4.65;3.10;;;;;;;;;;1956224;73;21040;-56
2022/05/30 11:06:38;;;;;;;8.10;3.42;;;;;;;;;;1957034;73;20996;-56
2022/05/30 11:09:10;;;;;;;7.28;3.65;;;;;;;;;;1957045;73;21012;-56
2022/05/30 11:11:57;;;;;;;4.78;3.33;;;;;;;;;;1957061;73;21067;-56
2022/05/30 11:14:30;;;;;;;4.97;3.65;;;;;;;;;;1956993;73;21101;-56
2022/05/30 11:17:18;;;;;;;4.12;3.27;;;;;;;;;;1956996;73;21048;-56
2022/05/30 11:20:07;;;;;;;12.45;4.05;;;;;;;;;;1957047;73;21028;-55
2022/05/30 11:22:50;;;;;;;6.45;3.70;;;;;;;;;;1955989;73;21473;-56
2022/05/30 11:25:26;;;;;;;9.75;3.70;;;;;;;;;;1957036;73;21028;-56
2022/05/30 11:28:03;;;;;;;8.43;4.08;;;;;;;;;;1956550;72;21012;-57
2022/05/30 11:30:33;;;;;;;9.08;4.10;;;;;;;;;;1955962;73;21051;-56
2022/05/30 11:33:12;;;;;;;6.47;4.00;;;;;;;;;;1956591;73;21145;-56
2022/05/30 11:35:45;;;;;;;3.45;3.17;;;;;;;;;;1956105;73;21544;-56
2022/05/30 11:38:32;;;;;;;5.17;3.25;;;;;;;;;;1956974;73;20988;-56
2022/05/30 11:41:14;;;;;;;4.30;3.40;;;;;;;;;;1957081;73;21036;-56
2022/05/30 11:44:03;;;;;;;4.03;3.60;;;;;;;;;;1956591;72;21019;-56
2022/05/30 11:46:45;;;;;;;5.17;3.00;;;;;;;;;;1956132;73;21146;-56
2022/05/30 11:49:30;;;;;;;5.17;3.42;;;;;;;;;;1956652;73;21040;-55
2022/05/30 11:52:16;;;;;;;4.37;3.10;;;;;;;;;;1956365;73;21082;-55
2022/05/30 11:54:47;;;;;;;5.42;3.30;;;;;;;;;;1956338;73;21031;-55
2022/05/30 11:57:32;;;;;;;6.92;4.00;;;;;;;;;;1956475;73;21008;-55
2022/05/30 12:00:02;;;;;;;6.20;3.85;;;;;;;;;;1956422;73;21007;-55
2022/05/30 12:02:51;;;;;;;3.83;3.15;;;;;;;;;;1954405;73;21111;-55
2022/05/30 12:05:30;;;;;;;9.15;4.03;;;;;;;;;;1956430;73;21085;-55
2022/05/30 12:08:01;;;;;;;16.85;6.83;;;;;;;;;;1956455;73;21115;-56
2022/05/30 12:10:37;;;;;;;5.55;4.87;;;;;;;;;;1956428;73;21039;-55
2022/05/30 12:13:24;;;;;;;7.60;4.17;;;;;;;;;;1956495;73;21044;-56
2022/05/30 12:15:54;;;;;;;6.08;3.37;;;;;;;;;;1956477;73;21032;-56
2022/05/30 12:24:24;;;;;;;3.10;2.80;;;;;;;;;;1956379;73;21114;-56
2022/05/30 12:26:56;;;;;;;5.78;3.77;;;;;;;;;;1956471;73;21043;-56
2022/05/30 12:29:34;;;;;;;7.33;3.30;;;;;;;;;;1956506;73;21470;-57
2022/05/30 12:32:24;;;;;;;5.37;3.98;;;;;;;;;;1953960;73;21015;-56
2022/05/30 12:37:48;;;;;;;5.55;3.20;;;;;;;;;;1956456;73;21028;-57
2022/05/30 12:40:21;;;;;;;7.65;3.95;;;;;;;;;;1955776;73;21044;-56
2022/05/30 12:43:10;;;;;;;5.75;3.40;;;;;;;;;;1956464;73;21012;-57
2022/05/30 12:45:46;;;;;;;7.87;4.58;;;;;;;;;;1956416;73;21083;-57
2022/05/30 12:48:20;;;;;;;9.60;3.62;;;;;;;;;;1955901;73;21485;-57
2022/05/30 12:50:53;;;;;;;8.03;3.87;;;;;;;;;;1955822;73;21117;-56
2022/05/30 12:53:23;;;;;;;5.30;3.58;;;;;;;;;;1956535;73;21098;-57
2022/05/30 12:55:53;;;;;;;4.92;3.55;;;;;;;;;;1956554;73;21067;-57
2022/05/30 12:58:23;;;;;;;5.42;3.50;;;;;;;;;;1956360;73;21501;-56
2022/05/30 13:00:53;;;;;;;5.50;3.83;;;;;;;;;;1956383;73;21132;-57
2022/05/30 13:03:25;;;;;;;5.35;3.50;;;;;;;;;;1956318;73;21015;-56
2022/05/30 13:06:06;;;;;;;4.53;3.17;;;;;;;;;;1956513;73;21012;-57
2022/05/30 13:08:54;;;;;;;7.80;3.33;;;;;;;;;;1956354;73;21035;-56
2022/05/30 13:11:36;;;;;;;3.90;3.40;;;;;;;;;;1956383;73;21603;-57
2022/05/30 13:14:06;;;;;;;5.37;3.85;;;;;;;;;;1955364;73;21024;-57
2022/05/30 13:16:36;;;;;;;6.05;3.77;;;;;;;;;;1953368;73;21086;-56
2022/05/30 13:19:05;;;;;;;6.17;3.42;;;;;;;;;;1956437;73;21078;-57
2022/05/30 13:21:33;;;;;;;7.22;4.15;;;;;;;;;;1956210;73;21028;-57
2022/05/30 13:24:02;;;;;;;7.50;3.90;;;;;;;;;;1956259;73;21055;-56
2022/05/30 13:26:32;;;;;;;17.00;5.12;;;;;;;;;;1956305;73;21032;-57
2022/05/30 13:29:01;;;;;;;8.70;3.90;;;;;;;;;;1956367;73;21548;-57
2022/05/30 13:31:30;;;;;;;9.83;3.95;;;;;;;;;;1956388;73;21105;-57
2022/05/30 13:33:59;;;;;;;6.05;2.98;;;;;;;;;;1956358;73;21077;-57
2022/05/30 13:36:31;;;;;;;5.55;3.52;;;;;;;;;;1956324;73;21091;-56
2022/05/30 13:39:00;;;;;;;6.92;3.62;;;;;;;;;;1956377;73;21024;-56
2022/05/30 13:41:30;;;;;;;6.15;4.00;;;;;;;;;;1956341;73;21028;-57
2022/05/30 13:43:59;;;;;;;4.40;3.83;;;;;;;;;;1956290;73;21368;-56
2022/05/30 13:46:32;;;;;;;5.95;4.25;;;;;;;;;;1956326;73;21097;-57
2022/05/30 13:49:01;;;;;;;7.80;3.80;;;;;;;;;;1956651;73;21024;-57
2022/05/30 13:51:34;;;;;;;6.55;3.70;;;;;;;;;;1956148;73;21047;-57
2022/05/30 13:54:04;;;;;;;17.92;5.17;;;;;;;;;;1956423;73;21105;-57
2022/05/30 13:56:34;;;;;;;7.35;4.25;;;;;;;;;;1956397;73;21533;-57
2022/05/30 13:59:04;;;;;;;5.92;3.70;;;;;;;;;;1956450;73;21407;-56
2022/05/30 14:01:34;;;;;;;13.03;4.35;;;;;;;;;;1956300;73;21121;-57
2022/05/30 14:04:04;;;;;;;8.15;4.05;;;;;;;;;;1955675;73;21102;-57
2022/05/30 14:06:37;;;;;;;7.00;4.10;;;;;;;;;;1956055;73;21121;-57
2022/05/30 14:09:07;;;;;;;9.05;4.47;;;;;;;;;;1956536;73;21063;-57
2022/05/30 14:11:37;;;;;;;6.17;3.87;;;;;;;;;;1956543;73;21016;-57
2022/05/30 14:14:06;;;;;;;13.32;4.67;;;;;;;;;;1955623;73;21110;-56
2022/05/30 14:16:45;;;;;;;6.90;4.00;;;;;;;;;;1956516;73;21024;-57
2022/05/30 14:19:15;;;;;;;9.88;4.83;;;;;;;;;;1954590;73;21093;-57
2022/05/30 14:21:45;;;;;;;5.28;4.00;;;;;;;;;;1954252;73;21000;-57
2022/05/30 14:24:30;;;;;;;5.92;4.12;;;;;;;;;;1955742;73;21020;-57
2022/05/30 14:26:58;;;;;;;4.50;4.10;;;;;;;;;;1956797;73;21544;-57
2022/05/30 14:29:31;;;;;;;6.20;3.27;;;;;;;;;;1956651;73;21098;-57
2022/05/30 14:32:18;;;;;;;6.92;4.08;;;;;;;;;;1956590;73;21076;-57
2022/05/30 14:35:03;;;;;;;8.18;4.17;;;;;;;;;;1956383;73;21105;-57
2022/05/30 14:37:34;;;;;;;6.33;4.17;;;;;;;;;;1956480;73;20993;-57
2022/05/30 14:40:03;;;;;;;13.32;5.22;;;;;;;;;;1956651;73;21578;-57
2022/05/30 14:42:40;;;;;;;9.68;4.92;;;;;;;;;;1956663;73;21059;-57
2022/05/30 14:45:11;;;;;;;8.30;4.40;;;;;;;;;;1955113;73;21470;-57
2022/05/30 14:47:41;;;;;;;10.08;4.60;;;;;;;;;;1956262;73;21023;-57
2022/05/30 14:50:13;;;;;;;9.30;4.17;;;;;;;;;;1947941;73;21069;-57
2022/05/30 14:52:46;;;;;;;9.55;4.45;;;;;;;;;;1928134;73;21408;-57
2022/05/30 14:55:14;;;;;;;7.35;3.83;;;;;;;;;;1928060;74;21048;-57
2022/05/30 14:57:45;;;;;;;8.70;3.92;;;;;;;;;;1927618;74;21071;-57
2022/05/30 15:00:28;;;;;;;15.38;5.35;;;;;;;;;;1928221;74;21017;-57
2022/05/30 15:05:43;;;;;;;13.65;7.45;;;;;;;;;;1928010;73;21072;-57
2022/05/30 15:08:12;;;;;;;21.33;10.90;;;;;;;;;;1928067;74;21090;-57
2022/05/30 15:10:41;;;;;;;36.88;11.97;;;;;;;;;;1928127;74;21029;-57
2022/05/30 15:13:09;;;;;;;12.10;7.17;;;;;;;;;;1928077;74;21025;-56
2022/05/30 15:15:38;;;;;;;12.43;4.85;;;;;;;;;;1928109;73;21016;-57
2022/05/30 15:18:09;;;;;;;14.70;5.12;;;;;;;;;;1928142;74;21549;-57
2022/05/30 15:20:37;;;;;;;10.75;5.17;;;;;;;;;;1928076;73;21460;-57
2022/05/30 15:23:06;;;;;;;11.97;6.25;;;;;;;;;;1927965;73;21036;-57
2022/05/30 15:25:35;;;;;;;8.95;4.28;;;;;;;;;;1928047;74;21021;-57
2022/05/30 15:28:04;;;;;;;12.18;4.50;;;;;;;;;;1927940;74;21020;-57
2022/05/30 15:30:33;;;;;;;10.13;5.05;;;;;;;;;;1928027;73;21072;-56
2022/05/30 15:33:01;;;;;;;10.03;4.20;;;;;;;;;;1928100;74;20993;-57
2022/05/30 15:35:30;;;;;;;8.80;3.85;;;;;;;;;;1928045;73;21118;-57
2022/05/30 15:37:59;;;;;;;14.78;3.95;;;;;;;;;;1927940;73;21102;-57
2022/05/30 15:40:28;;;;;;;7.78;3.50;;;;;;;;;;1927944;74;21033;-57
2022/05/30 15:42:57;;;;;;;10.58;3.58;;;;;;;;;;1927918;74;21110;-57
2022/05/30 15:45:25;;;;;;;5.33;3.65;;;;;;;;;;1927862;73;21098;-57
2022/05/30 15:47:55;;;;;;;9.15;3.17;;;;;;;;;;1927868;73;21095;-57
2022/05/30 15:50:25;;;;;;;9.28;3.92;;;;;;;;;;1932174;73;21122;-57
2022/05/30 15:58:30;;;;;;;8.95;4.42;;;;;;;;;;1956992;73;21188;-57
2022/05/30 16:00:59;;;;;;;13.15;3.50;;;;;;;;;;1956989;73;21012;-57
2022/05/30 16:03:28;;;;;;;5.17;3.15;;;;;;;;;;1957132;73;21016;-57